createdAt,value
2023-01-19T00:01:48.775Z,21.40
2023-01-19T00:04:19.194Z,21.08
2023-01-19T00:06:48.691Z,22.50
2023-01-19T00:09:16.731Z,20.63
2023-01-19T00:11:44.806Z,20.77
2023-01-19T00:14:12.901Z,21.58
2023-01-19T00:16:41.048Z,21.00
2023-01-19T00:19:10.450Z,23.15
2023-01-19T00:21:40.569Z,23.08
2023-01-19T00:24:11.210Z,21.40
2023-01-19T00:26:40.392Z,22.55
2023-01-19T00:29:08.829Z,22.00
2023-01-19T00:31:37.299Z,21.08
2023-01-19T00:34:06.240Z,21.10
2023-01-19T00:36:36.435Z,23.13
2023-01-19T00:39:04.728Z,22.17
2023-01-19T00:41:51.663Z,21.05
2023-01-19T00:44:19.928Z,22.88
2023-01-19T00:46:48.078Z,21.73
2023-01-19T00:49:16.272Z,21.50
2023-01-19T00:51:44.460Z,22.63
2023-01-19T00:54:12.635Z,21.10
2023-01-19T00:56:42.126Z,21.60
2023-01-19T00:59:11.725Z,23.65
2023-01-19T05:03:28.000Z,26.35
2023-01-19T05:05:57.567Z,24.67
2023-01-19T05:08:25.664Z,25.83
2023-01-19T05:10:53.819Z,25.27
2023-01-19T05:13:21.974Z,24.25
2023-01-19T05:15:50.343Z,25.23
2023-01-19T05:18:20.422Z,25.33
2023-01-19T05:20:48.523Z,27.00
2023-01-19T05:23:18.016Z,27.23
2023-01-19T05:25:46.127Z,26.60
2023-01-19T05:28:15.259Z,26.23
2023-01-19T05:30:43.498Z,27.13
2023-01-19T05:33:11.594Z,26.67
2023-01-19T05:35:39.646Z,27.85
2023-01-19T05:38:07.792Z,26.55
2023-01-19T05:40:37.265Z,25.85
2023-01-19T05:43:05.599Z,24.65
2023-01-19T05:45:34.238Z,26.52
2023-01-19T05:48:02.604Z,24.42
2023-01-19T05:50:30.750Z,26.67
2023-01-19T05:53:00.094Z,26.17
2023-01-19T05:55:28.852Z,26.50
2023-01-19T05:58:01.383Z,27.73
2023-01-19T06:00:32.092Z,26.02
2023-01-19T06:03:00.835Z,25.35
2023-01-19T06:05:29.157Z,27.20
2023-01-19T06:07:57.807Z,27.35
2023-01-19T06:10:25.878Z,27.98
2023-01-19T06:12:54.037Z,26.00
2023-01-19T06:15:23.686Z,26.70
2023-01-19T06:17:51.864Z,27.70
2023-01-19T06:20:20.307Z,27.23
2023-01-19T06:22:50.797Z,26.88
2023-01-19T06:25:18.905Z,27.00
2023-01-19T06:27:47.024Z,27.27
2023-01-19T06:30:15.744Z,26.60
2023-01-19T06:32:45.318Z,25.27
2023-01-19T06:35:13.520Z,24.50
2023-01-19T06:37:41.869Z,25.25
2023-01-19T06:40:13.597Z,26.88
2023-01-19T06:42:42.736Z,26.25
2023-01-19T06:45:11.772Z,26.02
2023-01-19T06:47:40.242Z,28.90
2023-01-19T06:50:11.207Z,26.77
2023-01-19T06:52:42.670Z,25.85
2023-01-19T06:55:11.953Z,27.02
2023-01-19T06:57:40.164Z,24.77
2023-01-19T07:00:10.090Z,25.60
2023-01-19T07:02:40.155Z,25.60
2023-01-19T07:05:10.531Z,24.30
2023-01-19T07:07:39.701Z,24.15
2023-01-19T07:10:09.253Z,25.42
2023-01-19T07:12:37.370Z,25.92
2023-01-19T07:15:06.657Z,26.00
2023-01-19T07:17:34.782Z,24.10
2023-01-19T07:20:03.069Z,23.95
2023-01-19T07:22:32.536Z,22.48
2023-01-19T07:25:01.583Z,23.40
2023-01-19T07:27:29.667Z,24.17
2023-01-19T07:29:57.851Z,23.15
2023-01-19T07:32:26.036Z,23.33
2023-01-19T07:34:54.308Z,24.15
2023-01-19T07:37:22.827Z,24.08
2023-01-19T07:39:52.332Z,23.88
2023-01-19T07:42:20.465Z,22.95
2023-01-19T07:44:48.573Z,22.35
2023-01-19T07:47:16.822Z,23.05
2023-01-19T07:49:44.953Z,23.92
2023-01-19T07:52:13.056Z,22.48
2023-01-19T07:54:43.507Z,23.50
2023-01-19T07:57:13.130Z,21.27
2023-01-19T07:59:41.278Z,21.95
2023-01-19T08:02:11.206Z,21.42
2023-01-19T08:04:39.513Z,21.50
2023-01-19T08:07:09.423Z,21.23
2023-01-19T08:09:37.444Z,19.70
2023-01-19T08:12:06.087Z,20.85
2023-01-19T08:14:35.528Z,21.95
2023-01-19T08:17:04.215Z,20.77
2023-01-19T08:19:32.727Z,20.17
2023-01-19T08:22:01.058Z,19.02
2023-01-19T08:24:29.455Z,18.40
2023-01-19T08:27:03.293Z,18.65
2023-01-19T08:29:32.306Z,18.13
2023-01-19T08:32:03.128Z,18.50
2023-01-19T08:34:31.938Z,17.67
2023-01-19T08:37:03.351Z,18.48
2023-01-19T08:39:36.264Z,17.63
2023-01-19T08:42:05.024Z,19.40
2023-01-19T08:44:36.623Z,18.42
2023-01-19T08:47:09.262Z,16.77
2023-01-19T08:49:41.152Z,16.85
2023-01-19T08:52:12.836Z,20.07
2023-01-19T08:54:43.333Z,16.60
2023-01-19T08:57:11.412Z,16.10
2023-01-19T08:59:39.479Z,16.58
2023-01-19T09:02:12.796Z,20.02
2023-01-19T09:04:41.108Z,17.30
2023-01-19T09:07:09.169Z,17.00
2023-01-19T09:09:41.758Z,14.73
2023-01-19T09:14:38.415Z,13.95
2023-01-19T09:17:08.027Z,14.05
2023-01-19T09:19:36.226Z,15.50
2023-01-19T09:22:04.317Z,15.65
2023-01-19T09:24:33.037Z,13.70
2023-01-19T09:27:05.686Z,13.95
2023-01-19T09:32:02.246Z,14.57
2023-01-19T09:34:31.841Z,13.82
2023-01-19T09:36:59.906Z,14.70
2023-01-19T09:39:28.034Z,13.93
2023-01-19T09:42:08.445Z,14.38
2023-01-19T09:44:37.278Z,15.52
2023-01-19T09:47:15.576Z,15.57
2023-01-19T09:49:49.910Z,14.02
2023-01-19T09:52:22.412Z,14.70
2023-01-19T09:54:56.122Z,15.50
2023-01-19T09:57:27.189Z,15.43
2023-01-19T09:59:59.574Z,16.40
2023-01-19T15:03:50.455Z,21.27
2023-01-19T15:06:21.747Z,21.90
2023-01-19T15:08:50.240Z,21.35
2023-01-19T15:11:23.514Z,21.98
2023-01-19T15:13:52.390Z,21.40
2023-01-19T15:16:21.030Z,22.30
2023-01-19T15:18:52.988Z,22.70
2023-01-19T15:21:23.781Z,22.75
2023-01-19T15:23:52.099Z,23.67
2023-01-19T15:26:22.365Z,22.52
2023-01-19T15:28:51.324Z,23.25
2023-01-19T15:31:21.268Z,28.85
2023-01-19T15:33:49.484Z,24.33
2023-01-19T15:36:20.918Z,25.55
2023-01-19T15:38:50.787Z,23.38
2023-01-19T15:41:25.985Z,24.23
2023-01-19T15:43:54.419Z,22.48
2023-01-19T15:46:23.731Z,22.48
2023-01-19T15:48:52.333Z,22.67
2023-01-19T15:51:25.102Z,23.70
2023-01-19T15:56:26.488Z,21.27
2023-01-19T15:58:55.622Z,23.45
2023-01-19T16:01:31.144Z,22.25
2023-01-19T16:04:01.519Z,23.65
2023-01-19T16:06:32.402Z,23.63
2023-01-19T16:09:01.353Z,21.63
2023-01-19T16:11:31.998Z,23.20
2023-01-19T16:14:00.685Z,23.70
2023-01-19T16:16:29.295Z,23.48
2023-01-19T16:18:58.249Z,22.30
2023-01-19T16:21:26.557Z,23.42
2023-01-19T16:23:56.590Z,22.25
2023-01-19T16:26:27.771Z,22.75
2023-01-19T16:28:59.170Z,23.48
2023-01-19T16:31:27.852Z,23.13
2023-01-19T16:33:56.153Z,23.63
2023-01-19T16:36:28.818Z,23.55
2023-01-19T16:39:02.501Z,23.40
2023-01-19T16:41:31.164Z,22.60
2023-01-19T16:44:00.407Z,23.60
2023-01-19T16:46:30.491Z,23.55
2023-01-19T16:49:01.419Z,22.15
2023-01-19T16:51:30.267Z,23.08
2023-01-19T16:54:00.140Z,20.90
2023-01-19T16:56:28.792Z,24.13
2023-01-19T16:58:57.743Z,23.98
2023-01-19T17:01:27.842Z,23.40
2023-01-19T17:03:57.242Z,21.77
2023-01-19T17:06:26.771Z,23.60
2023-01-19T17:08:55.023Z,22.27
2023-01-19T17:11:27.748Z,21.33
2023-01-19T17:16:25.965Z,21.15
2023-01-19T17:18:54.419Z,22.10
2023-01-19T17:21:22.770Z,22.98
2023-01-19T17:23:53.458Z,22.48
2023-01-19T17:28:58.593Z,23.20
2023-01-19T17:31:26.786Z,22.27
2023-01-19T17:33:55.141Z,22.02
2023-01-19T17:36:25.523Z,22.73
2023-01-19T17:38:55.953Z,22.58
2023-01-19T17:41:26.749Z,21.05
2023-01-19T17:43:55.694Z,21.25
2023-01-19T17:46:26.405Z,21.08
2023-01-19T17:48:55.220Z,20.98
2023-01-19T17:51:25.931Z,19.88
2023-01-19T17:53:55.455Z,21.45
2023-01-19T17:56:29.415Z,19.58
2023-01-19T17:58:57.967Z,23.15
2023-01-19T18:01:28.536Z,23.02
2023-01-19T18:03:57.159Z,23.77
2023-01-19T18:06:25.505Z,21.73
2023-01-19T18:08:54.073Z,23.35
2023-01-19T18:11:22.890Z,21.90
2023-01-19T18:13:53.012Z,21.50
2023-01-19T18:16:25.675Z,22.90
2023-01-19T18:18:57.741Z,22.23
2023-01-19T18:21:28.169Z,22.02
2023-01-19T18:24:01.571Z,24.15
2023-01-19T18:26:30.408Z,21.75
2023-01-19T18:29:00.576Z,21.90
2023-01-19T18:31:29.559Z,21.27
2023-01-19T18:33:57.850Z,23.20
2023-01-19T18:36:26.056Z,22.88
2023-01-19T18:38:54.476Z,22.73
2023-01-19T18:41:23.011Z,20.83
2023-01-19T18:43:51.966Z,21.50
2023-01-19T18:46:22.305Z,20.95
2023-01-19T18:48:50.968Z,20.30
2023-01-19T18:51:19.484Z,21.33
2023-01-19T18:53:49.739Z,21.60
2023-01-19T18:56:18.008Z,21.95
2023-01-19T18:58:46.444Z,20.90
2023-01-19T19:01:25.014Z,22.08
2023-01-19T19:03:53.894Z,21.63
2023-01-19T19:06:22.859Z,22.90
2023-01-19T19:08:52.357Z,22.98
2023-01-19T19:11:22.361Z,21.27
2023-01-19T19:13:53.225Z,21.58
2023-01-19T19:16:23.018Z,24.13
2023-01-19T19:18:51.513Z,21.23
2023-01-19T19:21:24.018Z,22.65
2023-01-19T19:23:53.296Z,28.35
2023-01-19T19:26:21.569Z,27.42
2023-01-19T19:28:49.703Z,24.85
2023-01-19T19:31:20.548Z,27.90
2023-01-19T19:33:51.016Z,23.77
2023-01-19T19:36:20.499Z,23.10
2023-01-19T19:38:48.895Z,23.25
2023-01-19T19:41:19.076Z,22.58
2023-01-19T19:46:20.145Z,24.60
2023-01-19T19:48:50.525Z,25.27
2023-01-19T19:51:22.500Z,26.48
2023-01-19T19:53:51.823Z,26.35
2023-01-19T19:56:21.958Z,23.40
2023-01-19T19:58:51.076Z,25.92
2023-01-19T20:01:21.238Z,23.90
2023-01-19T20:03:51.085Z,22.50
2023-01-19T20:06:21.344Z,22.83
2023-01-19T20:08:50.335Z,21.60
2023-01-19T20:11:20.411Z,22.95
2023-01-19T20:13:49.299Z,20.80
2023-01-19T20:16:19.613Z,21.20
2023-01-19T20:18:53.903Z,21.25
2023-01-19T20:21:24.843Z,23.55
2023-01-19T20:23:53.685Z,22.33
2023-01-19T20:26:25.015Z,23.13
2023-01-19T20:28:59.675Z,22.40
2023-01-19T20:31:30.738Z,19.42
2023-01-19T20:34:02.449Z,21.02
2023-01-19T20:36:30.874Z,19.98
2023-01-19T20:38:59.810Z,20.77
2023-01-19T20:41:28.505Z,21.70
2023-01-19T20:43:56.674Z,20.80
2023-01-19T20:46:24.870Z,21.85
2023-01-19T20:48:54.615Z,21.27
2023-01-19T20:51:25.720Z,21.13
2023-01-19T20:53:54.223Z,22.63
2023-01-19T20:56:22.506Z,24.92
2023-01-19T20:58:50.598Z,22.38
2023-01-19T21:01:22.179Z,20.83
2023-01-19T21:03:50.948Z,23.27
2023-01-19T21:06:20.205Z,19.17
2023-01-19T21:08:50.662Z,19.95
2023-01-19T21:11:20.863Z,20.88
2023-01-19T21:13:55.699Z,28.88
2023-01-19T21:18:53.222Z,23.35
2023-01-19T21:21:30.295Z,20.90
2023-01-19T21:24:01.974Z,19.15
2023-01-19T21:26:30.863Z,18.73
2023-01-19T21:28:59.771Z,18.98
2023-01-19T21:31:28.875Z,20.25
2023-01-19T21:33:58.073Z,20.48
2023-01-19T21:36:26.712Z,20.70
2023-01-19T21:39:00.358Z,19.17
2023-01-19T21:41:30.952Z,21.90
2023-01-19T21:44:00.981Z,23.60
2023-01-19T21:46:30.443Z,22.70
2023-01-19T21:48:59.432Z,21.80
2023-01-19T21:51:28.534Z,23.02
2023-01-19T21:54:00.143Z,21.70
2023-01-19T21:56:30.580Z,22.00
2023-01-19T21:59:02.075Z,21.50
2023-01-19T22:01:30.830Z,19.05
2023-01-19T22:03:59.668Z,20.15
2023-01-19T22:06:28.541Z,19.20
2023-01-19T22:08:58.331Z,19.95
2023-01-19T22:11:31.054Z,18.70
2023-01-19T22:13:59.688Z,18.85
2023-01-19T22:16:28.203Z,18.88
2023-01-19T22:18:59.486Z,19.08
2023-01-19T22:21:35.001Z,20.75
2023-01-19T22:24:05.077Z,18.48
2023-01-19T22:26:36.827Z,22.27
2023-01-19T22:29:06.702Z,20.67
2023-01-19T22:31:37.047Z,20.70
2023-01-19T22:34:09.891Z,19.25
2023-01-19T22:39:08.413Z,22.70
2023-01-19T22:41:39.396Z,21.50
2023-01-19T22:44:09.508Z,22.73
2023-01-19T22:46:38.489Z,22.30
2023-01-19T22:49:08.377Z,21.98
2023-01-19T22:51:37.060Z,24.48
2023-01-19T22:54:07.612Z,20.80
2023-01-19T22:56:39.347Z,22.25
2023-01-19T22:59:08.723Z,23.30
2023-01-19T23:01:38.620Z,22.98
2023-01-19T23:04:08.267Z,24.45
2023-01-19T23:06:37.563Z,20.63
2023-01-19T23:09:08.199Z,21.40
2023-01-19T23:11:39.675Z,21.38
2023-01-19T23:14:11.473Z,21.38
2023-01-19T23:16:39.586Z,21.47
2023-01-19T23:19:07.913Z,21.55
2023-01-19T23:21:36.924Z,22.85
2023-01-19T23:24:06.597Z,21.10
2023-01-19T23:26:38.175Z,21.80
2023-01-19T23:29:11.077Z,22.67
2023-01-19T23:34:10.282Z,22.33
2023-01-19T23:36:40.171Z,23.80
2023-01-19T23:39:13.083Z,24.90
2023-01-19T23:41:41.229Z,25.95
2023-01-19T23:44:11.769Z,24.17
2023-01-19T23:46:39.927Z,23.92
2023-01-19T23:49:08.047Z,23.40
2023-01-19T23:51:36.329Z,23.92
2023-01-19T23:54:04.862Z,26.00
2023-01-19T23:56:34.811Z,23.88
2023-01-19T23:59:04.839Z,23.52
